KITH/ITH METAR and TAF weather

Enter ICAO airport designator
Station Type Date Time Source
KITH METAR 2019/02/16 06:56 UTC NOAA

KITH 160656Z AUTO 27013KT 10SM -SN OVC032 M02/M07 A2981 RMK AO2 SNB0558E10B52 SLP103 P0000 T10221072


Station Type Date Time Source
KITH Decoded METAR 2019/02/16 06:56 UTC NOAA

Ithaca, Ithaca Tompkins Regional Airport, NY, United States (KITH) 42-29-27N 076-27-30W
Feb 16, 2019 - 01:56 AM EST / 2019.02.16 0656 UTC
Wind: from the W (270 degrees) at 15 MPH (13 KT):0
Visibility: 10 mile(s):0
Sky conditions: overcast
Weather: light snow
Precipitation last hour: A trace
Temperature: 28.0 F (-2.2 C)
Windchill: 15 F (-9 C):1
Dew Point: 19.0 F (-7.2 C)
Relative Humidity: 68%
Pressure (altimeter): 29.81 in. Hg (1009 hPa)
ob: KITH 160656Z AUTO 27013KT 10SM -SN OVC032 M02/M07 A2981 RMK AO2 SNB0558E10B52 SLP103 P0000 T10221072
cycle: 7

Station Type Date Time Source
KITH TAF 2019/02/16 06:27 UTC NOAA

TAF KITH 160524Z 1606/1706 28009KT P6SM -SHSN OVC040
FM160800 30013KT P6SM OVC025
FM161400 30013G21KT P6SM BKN035
FM161800 30013KT P6SM BKN040
FM170200 32007KT P6SM SCT040


Example: see airport list